createdAt,value
2022-10-22T00:00:27.271Z,9.45
2022-10-22T00:03:14.120Z,11.43
2022-10-22T00:06:02.404Z,9.48
2022-10-22T00:08:49.408Z,11.07
2022-10-22T00:11:39.214Z,11.43
2022-10-22T00:14:28.124Z,12.77
2022-10-22T00:17:17.259Z,11.15
2022-10-22T00:20:06.987Z,9.07
2022-10-22T00:22:57.923Z,12.07
2022-10-22T00:25:46.970Z,9.93
2022-10-22T00:28:36.111Z,11.88
2022-10-22T00:31:25.408Z,6.35
2022-10-22T00:34:14.772Z,9.00
2022-10-22T00:37:06.397Z,10.10
2022-10-22T00:39:56.896Z,11.13
2022-10-22T00:42:46.338Z,8.32
2022-10-22T00:45:35.782Z,10.50
2022-10-22T00:48:25.846Z,10.73
2022-10-22T00:51:14.827Z,12.63
2022-10-22T00:54:05.483Z,15.35
2022-10-22T00:56:56.752Z,14.00
2022-10-22T00:59:46.193Z,13.57
2022-10-22T01:02:35.963Z,13.02
2022-10-22T01:05:25.247Z,14.73
2022-10-22T01:08:20.619Z,14.25
2022-10-22T01:11:14.989Z,10.38
2022-10-22T01:14:13.075Z,15.07
2022-10-22T01:17:03.878Z,14.23
2022-10-22T01:19:58.991Z,14.35
2022-10-22T01:22:51.754Z,11.20
2022-10-22T01:25:39.450Z,9.80
2022-10-22T01:28:32.829Z,13.73
2022-10-22T01:31:22.914Z,13.98
2022-10-22T01:34:11.496Z,8.48
2022-10-22T01:36:58.945Z,14.55
2022-10-22T01:39:46.784Z,14.23
2022-10-22T01:42:33.813Z,15.73
2022-10-22T01:45:20.730Z,12.32
2022-10-22T01:48:13.984Z,13.63
2022-10-22T01:51:08.436Z,13.20
2022-10-22T01:54:00.099Z,10.95
2022-10-22T01:56:52.757Z,14.15
2022-10-22T01:59:45.744Z,13.80
2022-10-22T02:02:35.665Z,13.88
2022-10-22T02:05:26.482Z,11.52
2022-10-22T02:08:15.798Z,13.40
2022-10-22T02:11:03.277Z,11.25
2022-10-22T02:13:51.603Z,13.38
2022-10-22T02:16:40.548Z,11.18
2022-10-22T02:19:28.095Z,10.75
2022-10-22T02:22:16.653Z,9.32
2022-10-22T02:25:03.847Z,14.93
2022-10-22T02:27:52.848Z,14.57
2022-10-22T02:30:40.585Z,15.93
2022-10-22T02:33:30.157Z,10.23
2022-10-22T02:36:17.493Z,16.05
2022-10-22T02:39:06.228Z,11.68
2022-10-22T02:41:55.543Z,13.30
2022-10-22T02:44:42.455Z,13.70
2022-10-22T02:47:29.561Z,13.73
2022-10-22T02:50:16.424Z,18.85
2022-10-22T02:53:03.120Z,11.93
2022-10-22T02:55:51.391Z,13.55
2022-10-22T02:58:38.606Z,12.13
2022-10-22T03:01:25.424Z,12.60
2022-10-22T03:04:12.374Z,12.85
2022-10-22T03:06:59.341Z,12.10
2022-10-22T03:09:46.590Z,14.20
2022-10-22T03:12:34.897Z,16.23
2022-10-22T03:15:22.107Z,11.77
2022-10-22T03:18:08.992Z,14.75
2022-10-22T03:21:01.695Z,17.15
2022-10-22T03:23:48.941Z,12.88
2022-10-22T03:26:36.819Z,13.27
2022-10-22T03:29:26.617Z,12.40
2022-10-22T03:32:13.951Z,22.98
2022-10-22T03:35:01.105Z,18.92
2022-10-22T03:37:48.021Z,16.58
2022-10-22T03:40:35.013Z,15.10
2022-10-22T03:43:22.147Z,16.60
2022-10-22T03:46:10.439Z,18.13
2022-10-22T03:48:57.471Z,18.73
2022-10-22T03:51:44.216Z,17.33
2022-10-22T03:54:31.071Z,16.55
2022-10-22T03:57:17.998Z,15.88
2022-10-22T04:00:06.320Z,18.05
2022-10-22T04:02:54.781Z,18.55
2022-10-22T04:05:41.646Z,18.05
2022-10-22T04:08:28.509Z,16.27
2022-10-22T04:11:15.866Z,14.82
2022-10-22T04:14:02.886Z,19.48
2022-10-22T04:16:49.919Z,19.73
2022-10-22T04:19:38.177Z,19.02
2022-10-22T04:22:25.204Z,18.80
2022-10-22T04:25:12.027Z,17.48
2022-10-22T04:27:58.907Z,17.75
2022-10-22T04:30:45.691Z,19.98
2022-10-22T04:33:32.451Z,19.08
2022-10-22T04:36:20.917Z,18.45
2022-10-22T04:39:08.099Z,19.83
2022-10-22T04:41:54.970Z,20.83
2022-10-22T04:44:41.728Z,20.95
2022-10-22T04:47:28.539Z,21.73
2022-10-22T04:50:15.291Z,20.73
2022-10-22T04:53:03.663Z,25.40
2022-10-22T04:55:50.801Z,23.40
2022-10-22T04:58:37.924Z,18.20
2022-10-22T05:01:26.181Z,23.55
2022-10-22T05:04:13.795Z,22.75
2022-10-22T05:07:01.005Z,21.15
2022-10-22T05:09:49.140Z,23.80
2022-10-22T05:12:36.344Z,26.05
2022-10-22T05:15:23.533Z,22.08
2022-10-22T05:18:10.344Z,25.88
2022-10-22T05:20:57.279Z,22.15
2022-10-22T05:23:45.080Z,23.95
2022-10-22T05:26:33.609Z,20.60
2022-10-22T05:29:20.854Z,25.08
2022-10-22T05:32:07.668Z,22.15
2022-10-22T05:34:54.514Z,22.92
2022-10-22T05:37:41.464Z,21.25
2022-10-22T05:40:31.083Z,22.17
2022-10-22T05:43:19.690Z,19.40
2022-10-22T05:46:07.449Z,20.42
2022-10-22T05:48:54.976Z,22.67
2022-10-22T05:51:41.838Z,22.20
2022-10-22T05:54:28.739Z,20.05
2022-10-22T05:57:15.640Z,19.80
2022-10-22T06:00:03.723Z,22.30
2022-10-22T06:02:51.545Z,20.20
2022-10-22T06:05:38.855Z,17.42
2022-10-22T06:08:26.228Z,19.65
2022-10-22T06:11:13.308Z,20.45
2022-10-22T06:14:00.209Z,19.80
2022-10-22T06:16:49.123Z,16.95
2022-10-22T06:19:36.454Z,19.65
2022-10-22T06:22:23.667Z,19.67
2022-10-22T06:25:11.047Z,15.85
2022-10-22T06:27:58.073Z,19.40
2022-10-22T06:30:46.611Z,17.17
2022-10-22T06:33:42.134Z,18.55
2022-10-22T06:36:29.345Z,16.35
2022-10-22T06:39:17.620Z,16.48
2022-10-22T06:42:04.784Z,21.95
2022-10-22T06:44:51.903Z,20.58
2022-10-22T06:47:39.691Z,21.23
2022-10-22T06:50:28.582Z,19.38
2022-10-22T06:53:15.459Z,25.42
2022-10-22T06:56:05.881Z,18.70
2022-10-22T06:58:53.555Z,26.88
2022-10-22T07:01:40.554Z,20.17
2022-10-22T07:04:27.307Z,16.90
2022-10-22T07:07:16.099Z,17.95
2022-10-22T07:10:03.217Z,14.23
2022-10-22T07:12:50.126Z,16.38
2022-10-22T07:15:36.963Z,13.82
2022-10-22T07:18:24.081Z,16.00
2022-10-22T07:21:12.148Z,13.60
2022-10-22T07:24:00.523Z,16.55
2022-10-22T07:26:47.706Z,17.55
2022-10-22T07:29:34.855Z,12.00
2022-10-22T07:32:23.926Z,13.85
2022-10-22T07:35:10.894Z,14.75
2022-10-22T07:37:57.798Z,19.10
2022-10-22T07:40:46.129Z,14.52
2022-10-22T07:43:33.073Z,11.63
2022-10-22T07:46:20.340Z,14.57
2022-10-22T07:49:07.163Z,13.63
2022-10-22T07:51:54.181Z,14.30
2022-10-22T07:54:41.309Z,11.80
2022-10-22T07:57:29.556Z,12.00
2022-10-22T08:00:17.800Z,15.07
2022-10-22T08:03:05.499Z,15.43
2022-10-22T08:05:52.816Z,15.95
2022-10-22T08:08:39.629Z,11.80
2022-10-22T08:11:26.952Z,17.60
2022-10-22T08:14:15.119Z,11.55
2022-10-22T08:17:01.835Z,16.38
2022-10-22T08:19:48.715Z,11.65
2022-10-22T08:22:35.745Z,11.15
2022-10-22T08:25:23.070Z,12.68
2022-10-22T08:28:10.369Z,10.60
2022-10-22T08:30:58.755Z,13.23
2022-10-22T08:33:45.860Z,15.88
2022-10-22T08:36:32.811Z,9.75
2022-10-22T08:39:19.855Z,7.45
2022-10-22T08:42:09.040Z,9.20
2022-10-22T08:45:02.437Z,8.93
2022-10-22T08:48:00.103Z,9.17
2022-10-22T08:50:48.003Z,9.75
2022-10-22T08:53:38.973Z,9.75
2022-10-22T08:56:26.146Z,9.35
2022-10-22T08:59:15.944Z,7.90
2022-10-22T09:02:03.009Z,8.30
2022-10-22T09:04:57.625Z,5.85
2022-10-22T09:07:49.988Z,10.23
2022-10-22T09:10:37.931Z,9.57
2022-10-22T09:13:25.113Z,8.05
2022-10-22T09:16:16.018Z,15.48
2022-10-22T09:19:06.421Z,9.50
2022-10-22T09:21:59.615Z,5.70
2022-10-22T09:24:48.043Z,9.38
2022-10-22T09:27:34.910Z,11.50
2022-10-22T09:30:23.060Z,7.32
2022-10-22T09:33:13.495Z,11.23
2022-10-22T09:36:03.611Z,10.93
2022-10-22T09:38:52.671Z,7.68
2022-10-22T09:41:39.820Z,10.35
2022-10-22T09:44:27.423Z,6.45
2022-10-22T09:47:42.942Z,7.25
2022-10-22T09:50:39.402Z,8.98
2022-10-22T09:53:27.254Z,9.82
2022-10-22T09:56:19.803Z,5.90
2022-10-22T09:59:07.793Z,6.15
2022-10-22T10:02:04.956Z,5.35
2022-10-22T10:05:03.271Z,5.50
2022-10-22T10:07:50.630Z,8.25
2022-10-22T10:10:41.077Z,8.98
2022-10-22T10:13:38.285Z,6.53
2022-10-22T10:16:28.697Z,9.60
2022-10-22T10:19:28.444Z,7.88
2022-10-22T10:22:20.737Z,6.55
2022-10-22T10:25:21.776Z,5.68
2022-10-22T10:28:16.183Z,6.20
2022-10-22T10:31:07.989Z,8.68
2022-10-22T10:34:01.275Z,8.18
2022-10-22T10:36:53.197Z,11.07
2022-10-22T10:39:44.529Z,7.53
2022-10-22T10:42:34.782Z,5.63
2022-10-22T10:45:25.934Z,9.40
2022-10-22T10:48:22.228Z,8.10
2022-10-22T10:51:13.387Z,6.45
2022-10-22T10:54:05.828Z,8.00
2022-10-22T10:56:55.425Z,7.57
2022-10-22T10:59:46.689Z,5.22
2022-10-22T11:02:53.823Z,7.13
2022-10-22T11:05:42.671Z,6.90
2022-10-22T11:08:31.716Z,9.90
2022-10-22T11:11:20.621Z,8.77
2022-10-22T11:14:12.651Z,6.55
2022-10-22T11:17:01.929Z,7.75
2022-10-22T11:19:54.645Z,7.70
2022-10-22T11:23:13.504Z,7.95
2022-10-22T11:25:55.783Z,5.57
2022-10-22T11:28:45.053Z,20.23
2022-10-22T11:31:32.755Z,12.25
2022-10-22T11:34:33.276Z,8.00
2022-10-22T11:37:22.111Z,8.82
2022-10-22T11:40:15.912Z,12.65
2022-10-22T11:43:05.344Z,7.20
2022-10-22T11:45:58.144Z,9.35
2022-10-22T11:48:45.306Z,5.53
2022-10-22T11:51:36.609Z,7.63
2022-10-22T11:54:31.235Z,6.25
2022-10-22T11:57:26.555Z,7.70
2022-10-22T12:00:35.642Z,14.32
2022-10-22T12:03:25.735Z,13.10
2022-10-22T12:06:20.870Z,12.63
2022-10-22T12:09:07.789Z,10.32
2022-10-22T12:11:55.738Z,6.82
2022-10-22T12:14:54.384Z,8.65
2022-10-22T12:17:43.290Z,8.63
2022-10-22T12:20:30.783Z,10.20
2022-10-22T12:23:18.132Z,7.13
2022-10-22T12:26:06.170Z,8.43
2022-10-22T12:28:52.915Z,11.63
2022-10-22T12:31:42.088Z,10.02
2022-10-22T12:34:29.492Z,5.88
2022-10-22T12:37:17.570Z,9.73
2022-10-22T12:40:04.384Z,6.88
2022-10-22T12:42:52.405Z,5.20
2022-10-22T12:45:40.222Z,8.63
2022-10-22T12:48:30.945Z,12.65
2022-10-22T12:51:20.559Z,11.70
2022-10-22T12:54:10.516Z,8.20
2022-10-22T12:56:58.608Z,7.35
2022-10-22T12:59:49.717Z,8.02
2022-10-22T13:02:37.136Z,6.13
2022-10-22T13:05:27.657Z,5.85
2022-10-22T13:08:18.962Z,5.30
2022-10-22T13:11:08.963Z,6.15
2022-10-22T13:14:02.433Z,5.15
2022-10-22T13:17:06.063Z,5.85
2022-10-22T13:20:02.142Z,4.28
2022-10-22T13:23:00.134Z,4.63
2022-10-22T13:25:57.563Z,7.78
2022-10-22T13:28:50.622Z,4.72
2022-10-22T13:31:38.154Z,9.57
2022-10-22T13:34:26.026Z,3.70
2022-10-22T13:37:12.860Z,5.15
2022-10-22T13:40:01.134Z,4.70
2022-10-22T13:42:48.268Z,5.18
2022-10-22T13:45:35.101Z,6.18
2022-10-22T13:48:22.706Z,5.78
2022-10-22T13:51:14.654Z,6.97
2022-10-22T13:54:01.936Z,8.00
2022-10-22T13:56:50.317Z,6.82
2022-10-22T13:59:37.598Z,9.50
2022-10-22T14:02:24.946Z,3.70
2022-10-22T14:05:12.088Z,4.70
2022-10-22T14:08:00.285Z,6.28
2022-10-22T14:10:47.123Z,4.57
2022-10-22T14:13:35.243Z,8.20
2022-10-22T14:16:23.877Z,4.28
2022-10-22T14:19:11.410Z,4.90
2022-10-22T14:21:58.599Z,5.78
2022-10-22T14:24:46.085Z,4.50
2022-10-22T14:27:33.079Z,5.07
2022-10-22T14:30:24.280Z,3.50
2022-10-22T14:33:14.326Z,5.03
2022-10-22T14:36:01.837Z,4.10
2022-10-22T14:38:49.295Z,5.55
2022-10-22T14:41:36.453Z,4.57
2022-10-22T14:44:24.416Z,2.95
2022-10-22T14:47:13.274Z,6.93
2022-10-22T14:50:01.889Z,6.10
2022-10-22T14:52:49.008Z,3.70
2022-10-22T14:55:35.895Z,8.38
2022-10-22T14:58:23.649Z,5.32
2022-10-22T15:01:10.909Z,6.20
2022-10-22T15:03:59.257Z,7.38
2022-10-22T15:06:46.090Z,6.13
2022-10-22T15:09:33.312Z,6.68
2022-10-22T15:12:21.300Z,7.55
2022-10-22T15:15:08.594Z,4.75
2022-10-22T15:17:55.607Z,5.72
2022-10-22T15:20:43.950Z,9.45
2022-10-22T15:23:31.472Z,6.03
2022-10-22T15:26:18.281Z,6.07
2022-10-22T15:29:05.391Z,5.45
2022-10-22T15:31:53.181Z,7.85
2022-10-22T15:34:41.001Z,4.85
2022-10-22T15:37:30.872Z,8.77
2022-10-22T15:40:17.635Z,5.80
2022-10-22T15:43:04.402Z,9.90
2022-10-22T15:46:02.375Z,6.75
2022-10-22T15:48:49.112Z,4.20
2022-10-22T15:51:36.099Z,2.95
2022-10-22T15:54:25.720Z,2.80
2022-10-22T15:57:12.863Z,5.03
2022-10-22T15:59:59.843Z,4.82
2022-10-22T16:02:46.938Z,5.57
2022-10-22T16:05:34.241Z,4.40
2022-10-22T16:08:21.044Z,4.07
2022-10-22T16:11:09.590Z,4.40
2022-10-22T16:13:57.453Z,4.32
2022-10-22T16:16:45.221Z,7.63
2022-10-22T16:19:33.285Z,6.60
2022-10-22T16:22:20.474Z,4.70
2022-10-22T16:25:08.236Z,9.20
2022-10-22T16:27:56.402Z,7.00
2022-10-22T16:30:43.207Z,6.72
2022-10-22T16:33:39.128Z,7.82
2022-10-22T16:36:29.995Z,7.07
2022-10-22T16:39:17.129Z,4.80
2022-10-22T16:42:04.129Z,5.57
2022-10-22T16:44:52.304Z,3.78
2022-10-22T16:47:40.464Z,6.63
2022-10-22T16:50:27.720Z,8.55
2022-10-22T16:53:14.597Z,5.78
2022-10-22T16:56:01.438Z,5.78
2022-10-22T16:58:49.747Z,10.68
2022-10-22T17:01:40.866Z,12.10
2022-10-22T17:04:28.491Z,8.57
2022-10-22T17:07:15.371Z,11.40
2022-10-22T17:10:03.529Z,8.40
2022-10-22T17:12:50.393Z,9.07
2022-10-22T17:15:37.459Z,7.15
2022-10-22T17:18:25.678Z,8.80
2022-10-22T17:21:13.061Z,8.27
2022-10-22T17:23:59.898Z,9.32
2022-10-22T17:26:46.718Z,7.93
2022-10-22T17:29:33.510Z,6.38
2022-10-22T17:32:20.345Z,7.53
2022-10-22T17:35:08.892Z,9.30
2022-10-22T17:37:55.859Z,8.10
2022-10-22T17:40:42.655Z,6.25
2022-10-22T17:43:29.762Z,7.05
2022-10-22T17:46:18.151Z,9.13
2022-10-22T17:49:06.935Z,6.90
2022-10-22T17:51:55.208Z,5.80
2022-10-22T17:54:42.380Z,8.13
2022-10-22T17:57:29.165Z,9.70
2022-10-22T18:03:09.813Z,8.60
2022-10-22T18:05:56.801Z,8.95
2022-10-22T18:08:45.377Z,7.95
2022-10-22T18:11:32.699Z,9.05
2022-10-22T18:14:20.574Z,9.98
2022-10-22T18:17:08.043Z,9.38
2022-10-22T18:19:55.247Z,8.98
2022-10-22T18:22:42.454Z,7.28
2022-10-22T18:25:31.792Z,11.02
2022-10-22T18:28:19.279Z,5.53
2022-10-22T18:31:06.361Z,7.25
2022-10-22T18:36:45.685Z,7.72
2022-10-22T18:39:32.554Z,6.25
2022-10-22T18:42:20.972Z,5.93
2022-10-22T18:45:08.639Z,8.32
2022-10-22T18:47:55.748Z,7.32
2022-10-22T18:50:42.822Z,9.88
2022-10-22T18:53:30.000Z,9.95
2022-10-22T18:56:16.829Z,7.00
2022-10-22T18:59:05.108Z,5.82
2022-10-22T19:01:53.143Z,7.53
2022-10-22T19:04:40.030Z,9.27
2022-10-22T19:07:26.978Z,9.80
2022-10-22T19:10:13.907Z,8.70
2022-10-22T19:13:00.660Z,8.52
2022-10-22T19:15:48.857Z,10.05
2022-10-22T19:18:36.005Z,12.02
2022-10-22T19:21:23.295Z,13.38
2022-10-22T19:24:11.143Z,11.15
2022-10-22T19:26:58.242Z,9.68
2022-10-22T19:29:45.449Z,10.32
2022-10-22T19:32:33.761Z,8.98
2022-10-22T19:35:20.541Z,9.13
2022-10-22T19:38:07.380Z,7.68
2022-10-22T19:40:54.021Z,10.27
2022-10-22T19:43:40.905Z,8.10
2022-10-22T19:46:28.991Z,6.05
2022-10-22T19:49:21.968Z,7.50
2022-10-22T19:52:09.909Z,10.95
2022-10-22T19:54:56.719Z,8.38
2022-10-22T19:57:44.077Z,6.22
2022-10-22T20:00:32.176Z,8.38
2022-10-22T20:03:20.079Z,11.20
2022-10-22T20:06:09.446Z,12.40
2022-10-22T20:08:56.503Z,10.55
2022-10-22T20:11:44.387Z,8.93
2022-10-22T20:14:31.207Z,11.85
2022-10-22T20:17:18.243Z,9.27
2022-10-22T20:20:05.717Z,6.90
2022-10-22T20:22:54.093Z,9.13
2022-10-22T20:25:42.235Z,9.55
2022-10-22T20:28:29.364Z,10.70
2022-10-22T20:31:19.822Z,8.48
2022-10-22T20:34:07.023Z,9.52
2022-10-22T20:36:53.833Z,8.70
2022-10-22T20:39:42.004Z,9.30
2022-10-22T20:42:28.821Z,12.13
2022-10-22T20:45:15.848Z,10.43
2022-10-22T20:48:03.207Z,11.05
2022-10-22T20:50:50.368Z,6.72
2022-10-22T20:53:37.370Z,7.03
2022-10-22T20:56:25.761Z,10.35
2022-10-22T20:59:12.963Z,8.65
2022-10-22T21:02:00.911Z,10.50
2022-10-22T21:04:48.072Z,7.85
2022-10-22T21:07:35.354Z,7.97
2022-10-22T21:10:22.552Z,9.38
2022-10-22T21:13:10.885Z,7.63
2022-10-22T21:15:57.587Z,11.50
2022-10-22T21:18:44.418Z,7.28
2022-10-22T21:21:31.319Z,9.02
2022-10-22T21:24:18.182Z,11.38
2022-10-22T21:27:07.136Z,8.25
2022-10-22T21:29:55.364Z,8.90
2022-10-22T21:32:42.494Z,8.45
2022-10-22T21:35:29.580Z,9.13
2022-10-22T21:38:16.618Z,8.77
2022-10-22T21:41:05.329Z,7.28
2022-10-22T21:43:52.823Z,5.20
2022-10-22T21:46:41.002Z,5.22
2022-10-22T21:49:28.146Z,9.02
2022-10-22T21:52:15.056Z,12.43
2022-10-22T21:55:02.033Z,7.57
2022-10-22T21:57:48.882Z,9.73
2022-10-22T22:00:36.087Z,7.75
2022-10-22T22:03:24.724Z,10.27
2022-10-22T22:06:11.418Z,7.60
2022-10-22T22:08:58.551Z,10.52
2022-10-22T22:11:45.664Z,9.20
2022-10-22T22:14:32.710Z,10.63
2022-10-22T22:17:19.670Z,7.45
2022-10-22T22:20:10.057Z,10.27
2022-10-22T22:22:57.137Z,7.82
2022-10-22T22:25:44.942Z,6.95
2022-10-22T22:28:32.272Z,10.68
2022-10-22T22:31:19.890Z,9.88
2022-10-22T22:34:08.519Z,5.95
2022-10-22T22:36:56.706Z,9.68
2022-10-22T22:39:43.435Z,8.35
2022-10-22T22:42:30.294Z,8.32
2022-10-22T22:45:17.236Z,8.95
2022-10-22T22:48:04.316Z,13.02
2022-10-22T22:50:51.287Z,13.02
2022-10-22T22:53:39.663Z,10.90
2022-10-22T22:56:27.690Z,4.65
2022-10-22T22:59:14.719Z,6.50
2022-10-22T23:02:01.553Z,10.75
2022-10-22T23:04:48.452Z,11.38
2022-10-22T23:07:35.337Z,9.98
2022-10-22T23:10:24.082Z,11.85
2022-10-22T23:13:11.695Z,8.40
2022-10-22T23:15:58.777Z,8.15
2022-10-22T23:18:46.376Z,6.93
2022-10-22T23:21:34.746Z,8.02
2022-10-22T23:24:22.363Z,7.20
2022-10-22T23:27:11.903Z,5.35
2022-10-22T23:29:58.784Z,10.57
2022-10-22T23:32:45.676Z,9.30
2022-10-22T23:35:32.563Z,6.47
2022-10-22T23:38:19.473Z,7.65
2022-10-22T23:41:06.770Z,6.20
2022-10-22T23:43:55.119Z,8.10
2022-10-22T23:46:41.965Z,8.90
2022-10-22T23:49:28.783Z,7.93
2022-10-22T23:52:15.658Z,4.93
2022-10-22T23:55:02.363Z,13.00
2022-10-22T23:57:49.269Z,6.70
